Time;durP1;ratioP1;P1;durP2;ratioP2;P2;SDS_P1;SDS_P2;PMS_P1;PMS_P2;Temp;Humidity;BMP_temperature;BMP_pressure;BME280_temperature;BME280_humidity;BME280_pressure;Samples;Min_cycle;Max_cycle;Signal;HPM_P1;HPM_P2
2022/07/23 00:00:58;;;;;;;0.73;0.65;;;25.60;56.10;;;;;;5052477;28;20100;-79
2022/07/23 00:03:23;;;;;;;1.00;0.57;;;25.60;56.30;;;;;;5050909;28;20047;-79
2022/07/23 00:05:49;;;;;;;1.05;0.70;;;25.60;56.30;;;;;;5052142;28;20117;-79
2022/07/23 00:08:15;;;;;;;4.22;0.70;;;25.60;56.30;;;;;;5052233;28;20025;-79
2022/07/23 00:10:40;;;;;;;1.00;0.50;;;25.60;56.30;;;;;;5052190;28;20029;-79
2022/07/23 00:13:06;;;;;;;1.58;0.85;;;25.60;56.30;;;;;;5051011;28;20063;-79
2022/07/23 00:15:32;;;;;;;0.82;0.70;;;25.60;56.40;;;;;;5050947;28;20033;-80
2022/07/23 00:17:57;;;;;;;2.00;0.60;;;25.60;56.30;;;;;;5051842;28;20029;-80
2022/07/23 00:20:23;;;;;;;0.85;0.70;;;25.60;56.40;;;;;;5050879;28;20021;-78
2022/07/23 00:22:52;;;;;;;2.33;0.88;;;25.60;56.40;;;;;;5052111;28;20515;-79
2022/07/23 00:25:18;;;;;;;1.25;0.85;;;25.60;56.50;;;;;;5034559;28;20566;-79
2022/07/23 00:27:44;;;;;;;1.67;0.68;;;25.60;56.50;;;;;;5034394;28;20071;-79
2022/07/23 00:30:10;;;;;;;1.73;0.70;;;25.60;56.50;;;;;;5051897;28;20064;-79
2022/07/23 00:32:57;;;;;;;1.02;0.75;;;25.60;56.50;;;;;;5050501;28;20025;-79
2022/07/23 00:35:27;;;;;;;0.93;0.60;;;25.50;56.50;;;;;;5051879;28;20040;-79
2022/07/23 00:37:53;;;;;;;1.63;0.55;;;25.50;56.40;;;;;;5050516;28;20036;-78
2022/07/23 00:40:18;;;;;;;1.00;0.90;;;25.50;56.50;;;;;;5052045;28;20022;-79
2022/07/23 00:42:44;;;;;;;0.93;0.60;;;25.50;56.50;;;;;;5051855;28;20028;-78
2022/07/23 00:45:10;;;;;;;0.65;0.60;;;25.50;56.50;;;;;;5050767;28;20075;-79
2022/07/23 00:47:36;;;;;;;0.80;0.60;;;25.50;56.50;;;;;;5051833;28;20494;-78
2022/07/23 00:50:02;;;;;;;2.92;0.50;;;25.50;56.50;;;;;;5035471;28;20029;-78
2022/07/23 00:52:28;;;;;;;1.30;0.77;;;25.50;56.60;;;;;;5054702;28;20009;-78
2022/07/23 00:54:54;;;;;;;0.77;0.70;;;25.50;56.60;;;;;;5054485;28;20025;-78
2022/07/23 00:57:19;;;;;;;0.57;0.50;;;25.50;56.60;;;;;;5054506;28;20025;-78
2022/07/23 00:59:45;;;;;;;0.40;0.40;;;25.50;56.70;;;;;;5054463;28;20078;-78
2022/07/23 01:02:10;;;;;;;0.80;0.52;;;25.50;56.70;;;;;;5055244;28;20028;-78
2022/07/23 01:04:36;;;;;;;0.73;0.60;;;25.50;56.60;;;;;;5055482;28;20057;-78
2022/07/23 01:07:02;;;;;;;0.50;0.50;;;25.50;56.70;;;;;;5055663;28;20457;-78
2022/07/23 01:09:27;;;;;;;0.50;0.50;;;25.50;56.70;;;;;;5055494;28;20041;-79
2022/07/23 01:11:54;;;;;;;0.80;0.60;;;25.50;56.70;;;;;;5054192;28;20048;-79
2022/07/23 01:14:20;;;;;;;0.68;0.50;;;25.50;56.70;;;;;;5037787;28;20036;-78
2022/07/23 01:16:46;;;;;;;0.70;0.50;;;25.50;56.70;;;;;;5054851;28;20025;-78
2022/07/23 01:19:12;;;;;;;1.00;0.40;;;25.50;56.70;;;;;;5053911;28;20017;-79
2022/07/23 01:21:42;;;;;;;1.05;0.68;;;25.50;56.80;;;;;;5054054;28;20036;-79
2022/07/23 01:24:08;;;;;;;1.02;0.52;;;25.50;56.80;;;;;;5055542;28;20126;-79
2022/07/23 01:26:34;;;;;;;1.02;0.65;;;25.50;56.70;;;;;;5055132;28;20044;-79
2022/07/23 01:28:59;;;;;;;0.85;0.80;;;25.50;56.80;;;;;;5053824;28;20076;-79
2022/07/23 01:31:25;;;;;;;1.00;0.73;;;25.50;56.80;;;;;;5053614;28;20041;-79
2022/07/23 01:33:51;;;;;;;0.57;0.50;;;25.50;56.80;;;;;;5037118;28;20033;-79
2022/07/23 01:36:17;;;;;;;0.47;0.47;;;25.50;56.80;;;;;;5053643;28;20416;-79
2022/07/23 01:38:42;;;;;;;0.50;0.50;;;25.50;56.80;;;;;;5053759;28;20426;-79
2022/07/23 01:41:08;;;;;;;0.57;0.50;;;25.40;56.80;;;;;;5054696;28;20025;-79
2022/07/23 01:43:34;;;;;;;0.57;0.50;;;25.40;56.80;;;;;;5054899;28;20403;-78
2022/07/23 01:45:59;;;;;;;0.55;0.52;;;25.40;56.70;;;;;;5053029;28;20028;-79
2022/07/23 01:48:25;;;;;;;0.50;0.50;;;25.40;56.90;;;;;;5054655;28;20028;-78
2022/07/23 01:50:50;;;;;;;0.40;0.40;;;25.40;56.90;;;;;;5054265;28;20028;-79
2022/07/23 01:53:16;;;;;;;0.43;0.43;;;25.40;56.80;;;;;;5054569;28;20518;-78
2022/07/23 01:55:42;;;;;;;0.60;0.60;;;25.40;57.80;;;;;;5036984;28;20029;-78
2022/07/23 01:58:08;;;;;;;0.63;0.50;;;25.40;56.80;;;;;;5054320;28;20060;-79
2022/07/23 02:00:33;;;;;;;0.57;0.50;;;25.40;56.80;;;;;;5053967;28;20025;-79
2022/07/23 02:02:59;;;;;;;1.17;0.75;;;25.40;56.80;;;;;;5053212;28;20031;-78
2022/07/23 02:05:25;;;;;;;0.60;0.60;;;25.40;56.90;;;;;;5053181;28;20029;-78
2022/07/23 02:07:51;;;;;;;0.77;0.60;;;25.40;56.90;;;;;;5053129;28;20464;-78
2022/07/23 02:10:17;;;;;;;0.98;0.60;;;25.40;56.90;;;;;;5054210;28;20104;-78
2022/07/23 02:12:42;;;;;;;0.98;0.63;;;25.40;56.90;;;;;;5054134;28;20407;-78
2022/07/23 02:15:08;;;;;;;2.33;0.60;;;25.40;56.90;;;;;;5053831;28;20025;-78
2022/07/23 02:17:34;;;;;;;0.40;0.40;;;25.40;56.90;;;;;;5036444;28;20036;-79
2022/07/23 02:19:59;;;;;;;0.52;0.50;;;25.40;56.90;;;;;;5052837;28;20021;-79
2022/07/23 02:22:25;;;;;;;0.60;0.52;;;25.40;56.90;;;;;;5054100;28;20091;-79
2022/07/23 02:24:51;;;;;;;0.38;0.38;;;25.40;57.00;;;;;;5053961;28;20032;-79
2022/07/23 02:27:16;;;;;;;0.50;0.45;;;25.40;57.00;;;;;;5052690;28;20395;-79
2022/07/23 02:29:42;;;;;;;0.50;0.43;;;25.40;57.00;;;;;;5052653;28;20143;-79
2022/07/23 02:32:07;;;;;;;0.40;0.40;;;25.30;56.90;;;;;;5053512;28;20032;-79
2022/07/23 02:34:33;;;;;;;0.63;0.52;;;25.40;57.00;;;;;;5053869;28;20024;-79
2022/07/23 02:36:59;;;;;;;0.47;0.47;;;25.30;57.00;;;;;;5052849;28;20375;-77
2022/07/23 02:39:25;;;;;;;0.60;0.50;;;25.30;57.00;;;;;;5051389;28;20013;-80
2022/07/23 02:41:50;;;;;;;2.10;0.50;;;25.40;57.10;;;;;;5052628;28;20021;-79
2022/07/23 02:44:16;;;;;;;0.70;0.60;;;25.30;57.10;;;;;;5052834;28;20020;-79
2022/07/23 02:46:41;;;;;;;0.88;0.65;;;25.40;57.20;;;;;;5058485;28;20027;-79
2022/07/23 02:49:07;;;;;;;1.38;0.60;;;25.30;57.10;;;;;;5072079;28;20111;-79
2022/07/23 02:51:33;;;;;;;0.98;0.70;;;25.30;57.10;;;;;;5056188;28;20029;-79
2022/07/23 02:53:58;;;;;;;0.93;0.50;;;25.30;57.10;;;;;;5051964;28;20104;-78
2022/07/23 02:56:24;;;;;;;1.33;0.68;;;25.30;57.20;;;;;;5051036;28;20029;-79
2022/07/23 02:58:50;;;;;;;1.40;0.70;;;25.30;57.20;;;;;;5052111;28;20021;-78
2022/07/23 03:01:15;;;;;;;0.40;0.40;;;25.30;57.20;;;;;;5052043;28;20017;-78
2022/07/23 03:03:41;;;;;;;0.60;0.40;;;25.30;57.20;;;;;;5052002;28;20025;-78
2022/07/23 03:06:07;;;;;;;0.57;0.55;;;25.30;57.20;;;;;;5051820;28;20017;-79
2022/07/23 03:08:32;;;;;;;0.47;0.47;;;25.30;57.20;;;;;;5052091;28;20036;-79
2022/07/23 03:10:58;;;;;;;1.65;0.60;;;25.30;57.30;;;;;;5050848;28;20039;-79
2022/07/23 03:13:23;;;;;;;0.77;0.50;;;25.30;57.30;;;;;;5053348;28;20041;-79
2022/07/23 03:15:49;;;;;;;3.05;0.50;;;25.30;57.30;;;;;;5071645;28;20112;-78
2022/07/23 03:18:15;;;;;;;0.50;0.47;;;25.30;57.30;;;;;;5071448;28;20028;-79
2022/07/23 03:20:40;;;;;;;0.52;0.52;;;25.30;57.30;;;;;;5070458;28;20028;-79
2022/07/23 03:23:06;;;;;;;1.77;0.60;;;25.30;57.30;;;;;;5071604;28;20016;-79
2022/07/23 03:25:32;;;;;;;0.50;0.50;;;25.30;57.30;;;;;;5071437;28;20075;-79
2022/07/23 03:27:57;;;;;;;0.57;0.57;;;25.20;57.20;;;;;;5070026;28;20066;-79
2022/07/23 03:30:23;;;;;;;0.50;0.50;;;25.30;57.30;;;;;;5063026;28;20047;-78
2022/07/23 03:32:48;;;;;;;0.47;0.38;;;25.30;57.30;;;;;;5057367;28;20028;-79
2022/07/23 03:35:14;;;;;;;0.60;0.60;;;25.20;57.30;;;;;;5071396;28;20025;-79
2022/07/23 03:37:40;;;;;;;0.47;0.47;;;25.30;57.40;;;;;;5070951;28;20020;-78
2022/07/23 03:40:06;;;;;;;1.15;0.70;;;25.20;57.30;;;;;;5070985;28;20025;-79
2022/07/23 03:42:32;;;;;;;0.60;0.60;;;25.30;57.40;;;;;;5069563;28;20024;-78
2022/07/23 03:44:57;;;;;;;0.40;0.40;;;25.20;57.30;;;;;;5070805;28;20017;-79
2022/07/23 03:47:23;;;;;;;1.20;0.40;;;25.30;57.40;;;;;;5057075;28;20131;-78
2022/07/23 03:49:49;;;;;;;0.85;0.50;;;25.30;57.40;;;;;;5070951;28;20028;-79
2022/07/23 03:52:14;;;;;;;0.63;0.50;;;25.20;57.40;;;;;;5069543;28;20490;-79
2022/07/23 03:54:40;;;;;;;0.60;0.60;;;25.20;57.40;;;;;;5070837;28;20028;-79
2022/07/23 03:57:06;;;;;;;0.60;0.50;;;25.20;57.40;;;;;;5065821;28;20017;-80
2022/07/23 03:59:31;;;;;;;0.50;0.50;;;25.20;57.40;;;;;;5050778;28;20027;-79
2022/07/23 04:01:57;;;;;;;0.47;0.47;;;25.20;57.40;;;;;;5049736;28;20021;-79
2022/07/23 04:04:23;;;;;;;0.60;0.50;;;25.20;57.40;;;;;;5049755;28;20031;-79
2022/07/23 04:06:48;;;;;;;0.35;0.35;;;25.20;57.40;;;;;;5059975;28;20028;-80
2022/07/23 04:09:14;;;;;;;0.50;0.40;;;25.20;57.40;;;;;;5050699;28;20025;-79
2022/07/23 04:11:40;;;;;;;1.30;0.50;;;25.20;57.50;;;;;;5050587;28;20044;-79
2022/07/23 04:14:05;;;;;;;1.88;0.60;;;25.20;57.40;;;;;;5050788;28;20021;-79
2022/07/23 04:16:31;;;;;;;0.52;0.50;;;25.20;57.50;;;;;;5066130;28;20004;-79
2022/07/23 04:18:57;;;;;;;1.45;0.73;;;25.20;57.50;;;;;;5070675;28;20498;-79
2022/07/23 04:21:23;;;;;;;1.50;0.52;;;25.10;57.40;;;;;;5054498;28;20505;-78
2022/07/23 04:23:49;;;;;;;0.98;0.50;;;25.20;57.50;;;;;;5049477;28;20096;-79
2022/07/23 04:26:15;;;;;;;0.50;0.50;;;25.10;57.40;;;;;;5054118;28;20104;-79
2022/07/23 04:28:41;;;;;;;1.15;0.47;;;25.20;57.50;;;;;;5053685;28;20024;-79
2022/07/23 04:31:06;;;;;;;0.98;0.50;;;25.10;57.40;;;;;;5055274;28;20520;-79
2022/07/23 04:33:32;;;;;;;0.50;0.50;;;25.20;57.50;;;;;;5062446;28;20039;-79
2022/07/23 04:35:58;;;;;;;0.30;0.30;;;25.10;57.40;;;;;;5054629;28;20039;-79
2022/07/23 04:38:23;;;;;;;0.50;0.50;;;25.10;57.50;;;;;;5055898;28;20035;-79
2022/07/23 04:40:49;;;;;;;0.50;0.50;;;25.10;57.50;;;;;;5054845;28;20021;-79
2022/07/23 04:43:15;;;;;;;0.40;0.40;;;25.10;57.50;;;;;;5055869;28;20049;-79
2022/07/23 04:45:40;;;;;;;0.40;0.40;;;25.10;57.50;;;;;;5056242;28;20109;-79
2022/07/23 04:48:06;;;;;;;1.13;0.47;;;25.10;57.50;;;;;;5055477;28;20564;-79
2022/07/23 04:50:32;;;;;;;0.40;0.40;;;25.10;57.50;;;;;;5055934;28;20081;-79
2022/07/23 04:52:57;;;;;;;0.90;0.50;;;25.10;57.50;;;;;;5054710;28;20491;-79
2022/07/23 04:55:23;;;;;;;1.65;0.52;;;25.10;57.50;;;;;;5055262;28;20033;-79
2022/07/23 04:57:48;;;;;;;0.40;0.40;;;25.10;57.50;;;;;;5055666;28;20391;-79
2022/07/23 05:00:14;;;;;;;0.75;0.38;;;25.10;57.50;;;;;;5055754;28;20036;-80
2022/07/23 05:02:40;;;;;;;0.50;0.50;;;25.10;57.50;;;;;;5055418;28;20017;-80
2022/07/23 05:05:06;;;;;;;0.77;0.50;;;25.10;57.60;;;;;;5054256;28;20032;-80
2022/07/23 05:07:32;;;;;;;0.38;0.38;;;25.10;57.60;;;;;;5055496;28;20028;-79
2022/07/23 05:09:57;;;;;;;0.50;0.35;;;25.10;57.60;;;;;;5054092;28;20441;-79
2022/07/23 05:12:23;;;;;;;0.60;0.50;;;25.10;57.60;;;;;;5055178;28;20048;-79
2022/07/23 05:14:48;;;;;;;1.52;0.50;;;25.10;57.60;;;;;;5055372;28;20032;-79
2022/07/23 05:17:14;;;;;;;0.80;0.60;;;25.10;57.60;;;;;;5062966;28;20020;-80
2022/07/23 05:19:40;;;;;;;1.80;0.50;;;25.10;57.60;;;;;;5075301;28;20082;-78
2022/07/23 05:22:05;;;;;;;0.52;0.50;;;25.10;57.70;;;;;;5074988;28;20021;-79
2022/07/23 05:24:31;;;;;;;1.40;0.40;;;25.10;57.60;;;;;;5075056;28;20474;-79
2022/07/23 05:26:56;;;;;;;0.50;0.50;;;25.00;57.60;;;;;;5073886;28;20513;-78
2022/07/23 05:29:22;;;;;;;0.50;0.40;;;25.00;57.60;;;;;;5075049;28;20486;-79
2022/07/23 05:31:49;;;;;;;0.55;0.55;;;25.00;57.60;;;;;;5075117;28;20027;-79
2022/07/23 05:34:15;;;;;;;0.50;0.50;;;25.00;57.60;;;;;;5056922;28;20028;-79
2022/07/23 05:36:40;;;;;;;0.45;0.45;;;25.00;57.70;;;;;;5053123;28;20402;-79
2022/07/23 05:39:06;;;;;;;1.20;0.38;;;25.00;57.70;;;;;;5054792;28;20499;-78
2022/07/23 05:41:32;;;;;;;0.32;0.32;;;25.00;57.70;;;;;;5054755;28;20032;-79
2022/07/23 05:43:57;;;;;;;0.40;0.35;;;25.00;57.70;;;;;;5054462;28;20036;-78
2022/07/23 05:46:23;;;;;;;0.38;0.38;;;25.00;57.70;;;;;;5054622;28;20017;-78
2022/07/23 05:48:51;;;;;;;0.40;0.40;;;25.00;57.70;;;;;;5054824;28;20087;-78
2022/07/23 05:51:23;;;;;;;1.00;0.40;;;25.00;57.70;;;;;;5054556;28;20023;-79
2022/07/23 05:53:49;;;;;;;0.40;0.40;;;25.00;57.70;;;;;;5054562;28;20035;-79
2022/07/23 05:56:15;;;;;;;0.40;0.40;;;25.00;57.70;;;;;;5053372;28;20103;-78
2022/07/23 05:58:41;;;;;;;0.40;0.40;;;25.00;57.70;;;;;;5054350;28;20017;-78
2022/07/23 06:01:07;;;;;;;0.45;0.30;;;25.00;57.70;;;;;;5054624;28;20071;-78
2022/07/23 06:03:32;;;;;;;0.30;0.30;;;25.00;57.70;;;;;;5053219;28;20079;-78
2022/07/23 06:05:58;;;;;;;1.98;0.50;;;25.00;57.80;;;;;;5054096;28;20021;-78
2022/07/23 06:08:23;;;;;;;0.40;0.40;;;25.00;57.70;;;;;;5053225;28;20040;-78
2022/07/23 06:10:49;;;;;;;0.63;0.40;;;25.00;57.70;;;;;;5053187;28;20090;-78
2022/07/23 06:13:15;;;;;;;0.32;0.32;;;25.00;57.80;;;;;;5052944;28;20052;-78
2022/07/23 06:15:41;;;;;;;0.30;0.30;;;25.00;57.80;;;;;;5036562;28;20495;-79
2022/07/23 06:18:06;;;;;;;0.40;0.40;;;24.90;57.70;;;;;;5054085;28;20028;-79
2022/07/23 06:20:32;;;;;;;0.73;0.38;;;24.90;57.80;;;;;;5053851;28;20017;-78
2022/07/23 06:22:58;;;;;;;0.60;0.60;;;24.90;57.80;;;;;;5054366;28;20029;-79
2022/07/23 06:25:24;;;;;;;0.57;0.47;;;24.90;57.80;;;;;;5054000;28;20494;-78
2022/07/23 06:27:50;;;;;;;0.40;0.40;;;24.90;57.80;;;;;;5054062;28;20047;-79
2022/07/23 06:30:18;;;;;;;1.40;0.47;;;24.90;57.80;;;;;;5054007;28;20021;-79
2022/07/23 06:32:47;;;;;;;0.80;0.40;;;24.90;57.80;;;;;;5053745;28;20103;-78
2022/07/23 06:35:13;;;;;;;1.75;0.40;;;24.90;57.90;;;;;;5052549;28;20025;-78
2022/07/23 06:37:38;;;;;;;0.47;0.40;;;24.90;57.90;;;;;;5052258;28;20390;-78
2022/07/23 06:40:04;;;;;;;0.88;0.50;;;24.90;58.90;;;;;;5053797;28;20087;-78
2022/07/23 06:42:30;;;;;;;0.30;0.30;;;24.90;58.00;;;;;;5053677;28;20043;-79
2022/07/23 06:44:56;;;;;;;1.67;0.40;;;24.90;57.90;;;;;;5053795;28;20025;-78
2022/07/23 06:47:21;;;;;;;0.20;0.20;;;24.90;57.90;;;;;;5051284;28;20033;-79
2022/07/23 06:49:47;;;;;;;0.40;0.40;;;24.90;58.00;;;;;;5053541;28;20028;-79
2022/07/23 06:52:13;;;;;;;0.40;0.40;;;24.90;58.00;;;;;;5052373;28;20048;-79
2022/07/23 06:54:38;;;;;;;0.30;0.30;;;24.90;58.00;;;;;;5052272;28;20017;-79
2022/07/23 06:57:04;;;;;;;0.40;0.38;;;24.90;58.00;;;;;;5053445;28;20025;-78
2022/07/23 06:59:29;;;;;;;0.25;0.25;;;24.90;58.00;;;;;;5053278;28;20048;-79
2022/07/23 07:01:55;;;;;;;0.32;0.32;;;24.90;58.00;;;;;;5053409;28;20021;-79
2022/07/23 07:04:21;;;;;;;0.43;0.40;;;24.90;58.00;;;;;;5053203;28;20039;-78
2022/07/23 07:06:46;;;;;;;0.32;0.32;;;24.90;58.00;;;;;;5053259;28;20052;-79
2022/07/23 07:09:12;;;;;;;0.43;0.38;;;24.90;58.00;;;;;;5053135;28;20096;-79
2022/07/23 07:11:37;;;;;;;1.02;0.40;;;24.90;58.10;;;;;;5052864;28;20168;-79
2022/07/23 07:14:04;;;;;;;0.40;0.40;;;24.90;58.10;;;;;;5052006;28;20368;-79
2022/07/23 07:16:30;;;;;;;0.70;0.35;;;24.90;58.10;;;;;;5053244;28;20123;-79
2022/07/23 07:18:55;;;;;;;0.30;0.30;;;24.90;58.10;;;;;;5035130;28;20104;-79
2022/07/23 07:21:21;;;;;;;0.38;0.38;;;24.80;58.00;;;;;;5052877;28;20039;-79
2022/07/23 07:23:46;;;;;;;0.60;0.38;;;24.80;58.00;;;;;;5051850;28;20388;-79
2022/07/23 07:26:12;;;;;;;0.35;0.35;;;24.80;58.10;;;;;;5053030;28;20037;-78
2022/07/23 07:28:38;;;;;;;0.30;0.30;;;24.90;58.10;;;;;;5052731;28;20025;-79
2022/07/23 07:31:03;;;;;;;0.20;0.20;;;24.90;58.10;;;;;;5051842;28;20031;-79
2022/07/23 07:33:29;;;;;;;0.47;0.40;;;24.90;58.10;;;;;;5052393;28;20025;-79
2022/07/23 07:35:54;;;;;;;0.30;0.30;;;24.80;58.00;;;;;;5052919;28;20109;-78
2022/07/23 07:38:20;;;;;;;0.30;0.30;;;24.80;58.00;;;;;;5052640;28;20488;-78
2022/07/23 07:40:46;;;;;;;0.57;0.47;;;24.80;58.00;;;;;;5052591;28;20021;-78
2022/07/23 07:43:11;;;;;;;0.40;0.40;;;24.80;58.00;;;;;;5052733;28;20024;-79
2022/07/23 07:45:37;;;;;;;5.07;0.40;;;24.90;58.10;;;;;;5051033;28;20025;-79
2022/07/23 07:48:03;;;;;;;1.45;0.30;;;24.80;58.10;;;;;;5069386;28;20036;-78
2022/07/23 07:50:29;;;;;;;0.40;0.30;;;24.80;57.40;;;;;;5070864;28;20036;-80
2022/07/23 07:52:55;;;;;;;0.40;0.40;;;24.80;57.00;;;;;;5063705;28;20100;-79
2022/07/23 07:55:20;;;;;;;0.20;0.20;;;24.80;56.80;;;;;;5057346;28;20024;-79
2022/07/23 07:57:46;;;;;;;0.40;0.38;;;24.80;56.70;;;;;;5066807;28;20406;-80
2022/07/23 08:00:12;;;;;;;1.15;0.40;;;24.80;56.70;;;;;;5070537;28;20028;-80
2022/07/23 08:02:47;;;;;;;0.80;0.30;;;24.80;56.70;;;;;;5067836;28;20479;-79
2022/07/23 08:05:13;;;;;;;0.20;0.20;;;24.70;56.70;;;;;;5055105;28;20043;-78
2022/07/23 08:07:39;;;;;;;0.90;0.50;;;24.70;56.60;;;;;;5062802;28;20475;-79
2022/07/23 08:10:07;;;;;;;0.40;0.40;;;24.70;56.60;;;;;;5069286;28;20368;-79
2022/07/23 08:12:45;;;;;;;0.65;0.30;;;24.70;56.50;;;;;;5052819;28;20032;-80
2022/07/23 08:15:12;;;;;;;0.40;0.40;;;24.70;56.50;;;;;;5053334;28;20452;-79
2022/07/23 08:17:38;;;;;;;0.20;0.20;;;24.70;56.40;;;;;;5056482;28;20013;-79
2022/07/23 08:20:05;;;;;;;0.30;0.30;;;24.70;56.40;;;;;;5049473;28;20028;-80
2022/07/23 08:22:52;;;;;;;0.30;0.30;;;24.70;56.40;;;;;;5058231;28;20546;-80
2022/07/23 08:25:23;;;;;;;0.30;0.30;;;24.70;56.50;;;;;;5069480;28;20063;-78
2022/07/23 08:27:49;;;;;;;0.25;0.25;;;24.70;56.40;;;;;;5070906;28;20016;-79
2022/07/23 08:30:16;;;;;;;0.38;0.20;;;24.60;56.30;;;;;;5070621;28;20028;-79
2022/07/23 08:32:51;;;;;;;0.57;0.50;;;24.60;56.30;;;;;;5056872;28;20039;-80
2022/07/23 08:35:18;;;;;;;0.30;0.30;;;24.60;56.40;;;;;;5049555;28;20521;-78
2022/07/23 08:37:44;;;;;;;0.32;0.32;;;24.60;56.30;;;;;;5049268;28;20023;-79
2022/07/23 08:40:10;;;;;;;0.38;0.38;;;24.60;56.30;;;;;;5051780;28;20100;-79
2022/07/23 08:42:36;;;;;;;0.30;0.30;;;24.60;56.30;;;;;;5052466;28;20013;-79
2022/07/23 08:45:02;;;;;;;0.75;0.40;;;24.60;56.40;;;;;;5065248;28;20051;-80
2022/07/23 08:47:29;;;;;;;0.35;0.35;;;24.60;56.30;;;;;;5037712;28;20060;-80
2022/07/23 08:49:55;;;;;;;1.20;0.30;;;24.60;56.30;;;;;;5049252;28;20503;-79
2022/07/23 08:52:21;;;;;;;1.00;0.22;;;24.60;56.30;;;;;;5049273;28;20017;-79
2022/07/23 08:54:46;;;;;;;0.20;0.20;;;24.60;56.40;;;;;;5060678;28;20029;-78
2022/07/23 08:57:12;;;;;;;1.17;0.28;;;24.60;56.40;;;;;;5068971;28;20029;-79
2022/07/23 08:59:37;;;;;;;0.20;0.20;;;24.60;56.40;;;;;;5058864;28;20029;-78
2022/07/23 09:02:03;;;;;;;0.88;0.30;;;24.60;56.50;;;;;;5049105;28;20518;-71
2022/07/23 09:04:29;;;;;;;0.30;0.30;;;24.60;56.40;;;;;;5050271;28;20027;-71
2022/07/23 09:06:54;;;;;;;0.35;0.35;;;24.50;56.40;;;;;;5049000;28;20028;-72
2022/07/23 09:09:20;;;;;;;0.43;0.30;;;24.60;56.40;;;;;;5049276;28;20055;-71
2022/07/23 09:11:47;;;;;;;0.40;0.40;;;24.50;56.30;;;;;;5051396;28;20044;-72
2022/07/23 09:14:12;;;;;;;0.32;0.25;;;24.50;56.40;;;;;;5052818;28;20017;-71
2022/07/23 09:16:38;;;;;;;0.20;0.20;;;24.50;56.40;;;;;;5052583;28;20065;-70
2022/07/23 09:19:05;;;;;;;0.22;0.22;;;24.50;56.40;;;;;;5053771;28;20028;-70
2022/07/23 09:21:35;;;;;;;0.20;0.20;;;24.50;56.40;;;;;;5053755;28;20025;-70
2022/07/23 09:24:02;;;;;;;0.30;0.30;;;24.50;56.50;;;;;;5052597;28;20021;-70
2022/07/23 09:26:34;;;;;;;0.38;0.38;;;24.50;56.40;;;;;;5053844;28;20013;-70
2022/07/23 09:29:08;;;;;;;0.25;0.22;;;24.50;56.40;;;;;;5053510;28;20021;-71
2022/07/23 09:31:34;;;;;;;0.90;0.25;;;24.50;56.50;;;;;;5052501;28;20033;-70
2022/07/23 09:34:32;;;;;;;0.30;0.30;;;24.50;56.40;;;;;;5053235;28;20028;-71
2022/07/23 09:37:08;;;;;;;1.50;0.40;;;24.50;56.40;;;;;;5049777;28;20040;-70
2022/07/23 09:39:34;;;;;;;0.30;0.30;;;24.50;56.50;;;;;;5053718;28;20052;-70
2022/07/23 09:42:32;;;;;;;0.20;0.20;;;24.50;56.50;;;;;;5053764;28;20052;-70
2022/07/23 09:44:58;;;;;;;0.32;0.22;;;24.50;56.50;;;;;;5032471;28;20038;-71
2022/07/23 09:47:27;;;;;;;0.20;0.20;;;24.40;56.50;;;;;;4999931;28;20029;-71
2022/07/23 09:50:05;;;;;;;0.80;0.30;;;24.40;56.50;;;;;;5032590;28;20400;-70
2022/07/23 09:52:35;;;;;;;1.17;0.50;;;24.40;56.50;;;;;;5032626;28;20041;-72
2022/07/23 09:55:01;;;;;;;1.60;0.30;;;24.40;56.50;;;;;;5016122;28;20075;-70
2022/07/23 09:57:27;;;;;;;0.98;0.30;;;24.40;56.50;;;;;;5032521;28;20025;-73
2022/07/23 09:59:53;;;;;;;0.98;0.40;;;24.40;56.50;;;;;;5015886;28;20037;-68
2022/07/23 10:02:19;;;;;;;1.70;0.30;;;24.40;56.50;;;;;;5016083;28;20041;-68
2022/07/23 10:04:44;;;;;;;0.90;0.40;;;24.40;56.50;;;;;;5032404;28;20029;-68
2022/07/23 10:07:10;;;;;;;4.63;0.98;;;24.40;56.50;;;;;;5015987;28;20048;-68
2022/07/23 10:09:39;;;;;;;3.38;0.60;;;24.40;56.60;;;;;;5015842;28;20037;-68
2022/07/23 10:15:07;;;;;;;2.28;0.68;;;24.40;56.60;;;;;;5011802;28;20153;-68
2022/07/23 10:17:34;;;;;;;6.13;0.75;;;24.40;56.80;;;;;;5032625;28;20042;-69
2022/07/23 10:20:00;;;;;;;5.15;1.38;;;24.40;56.80;;;;;;5024156;28;20048;-69
2022/07/23 10:22:30;;;;;;;17.88;1.50;;;24.40;56.00;;;;;;5054263;28;20021;-69
2022/07/23 10:25:00;;;;;;;6.00;1.58;;;24.40;56.00;;;;;;5037157;28;20048;-67
2022/07/23 10:27:56;;;;;;;6.13;1.60;;;24.40;55.90;;;;;;5053279;28;20033;-69
2022/07/23 10:30:42;;;;;;;8.75;1.50;;;24.40;55.90;;;;;;5053502;28;20036;-69
2022/07/23 10:33:29;;;;;;;6.70;1.70;;;24.40;55.50;;;;;;5053196;28;20068;-69
2022/07/23 10:36:15;;;;;;;6.30;1.55;;;24.30;55.40;;;;;;5054505;28;20139;-70
2022/07/23 10:39:06;;;;;;;2.67;1.23;;;24.30;55.10;;;;;;5022258;28;20116;-69
2022/07/23 10:41:39;;;;;;;3.50;1.20;;;24.30;54.70;;;;;;5052891;28;20029;-69
2022/07/23 10:44:12;;;;;;;2.40;1.20;;;24.30;54.60;;;;;;5036510;28;20063;-69
2022/07/23 10:49:45;;;;;;;6.03;1.30;;;24.30;55.00;;;;;;5051938;28;20639;-69
2022/07/23 10:52:13;;;;;;;2.67;0.93;;;24.30;55.10;;;;;;5035644;28;20116;-69
2022/07/23 10:55:02;;;;;;;2.67;1.40;;;24.30;55.10;;;;;;5053368;28;20025;-69
2022/07/23 10:57:28;;;;;;;1.27;0.70;;;24.30;55.30;;;;;;5011294;28;20057;-69
2022/07/23 11:00:11;;;;;;;2.85;0.90;;;24.30;54.60;;;;;;4979021;28;20459;-69
2022/07/23 11:02:38;;;;;;;1.77;0.90;;;24.20;54.40;;;;;;5011288;28;20397;-69
2022/07/23 11:05:11;;;;;;;1.58;0.82;;;24.20;54.40;;;;;;4979070;28;20033;-69
2022/07/23 11:07:57;;;;;;;2.35;0.90;;;24.30;54.50;;;;;;5011469;28;20034;-69
2022/07/23 11:10:45;;;;;;;1.75;0.80;;;24.20;54.70;;;;;;5011177;28;20400;-70
2022/07/23 11:13:25;;;;;;;1.58;0.90;;;24.30;55.10;;;;;;4994707;28;20050;-70
2022/07/23 11:16:04;;;;;;;1.13;0.90;;;24.30;55.30;;;;;;5011672;28;20465;-69
2022/07/23 11:18:47;;;;;;;1.48;0.90;;;24.30;55.20;;;;;;5011716;28;20034;-70
2022/07/23 11:21:23;;;;;;;2.33;0.88;;;24.20;55.20;;;;;;5011618;28;20049;-70
2022/07/23 11:24:02;;;;;;;0.75;0.75;;;24.20;55.20;;;;;;5011409;28;20590;-70
2022/07/23 11:26:40;;;;;;;0.93;0.80;;;24.20;55.30;;;;;;5011194;28;20075;-70
2022/07/23 11:29:24;;;;;;;1.40;0.85;;;24.20;55.10;;;;;;5011434;28;20176;-70
2022/07/23 11:32:22;;;;;;;0.80;0.80;;;24.20;55.30;;;;;;5011438;28;20112;-70
2022/07/23 11:34:49;;;;;;;2.25;0.98;;;24.30;55.50;;;;;;5015383;28;20053;-70
2022/07/23 11:37:34;;;;;;;1.15;0.88;;;24.20;55.40;;;;;;5031677;28;20468;-69
2022/07/23 11:40:00;;;;;;;2.55;1.00;;;24.30;55.00;;;;;;5031338;28;20048;-70
2022/07/23 11:42:26;;;;;;;1.48;0.63;;;24.20;55.30;;;;;;5031562;28;20018;-69
2022/07/23 11:44:51;;;;;;;1.63;1.08;;;24.20;55.20;;;;;;5032661;28;20022;-70
2022/07/23 11:47:25;;;;;;;1.33;0.73;;;24.20;55.40;;;;;;5044288;28;20078;-70
2022/07/23 11:49:58;;;;;;;0.70;0.70;;;24.20;55.20;;;;;;5051293;28;20017;-69
2022/07/23 11:52:24;;;;;;;1.25;0.90;;;24.20;55.30;;;;;;5051348;28;20498;-70
2022/07/23 11:54:53;;;;;;;1.75;0.73;;;24.20;55.20;;;;;;5050942;28;20025;-69
2022/07/23 11:57:20;;;;;;;1.38;0.80;;;24.20;55.00;;;;;;5052363;28;20021;-70
2022/07/23 11:59:52;;;;;;;0.70;0.70;;;24.20;55.30;;;;;;5050969;28;20096;-70
2022/07/23 12:02:18;;;;;;;1.17;1.00;;;24.20;55.20;;;;;;5052393;28;20379;-69
2022/07/23 12:04:46;;;;;;;9.27;1.92;;;24.20;55.20;;;;;;5035054;28;20025;-69
2022/07/23 12:07:28;;;;;;;9.10;1.92;;;24.20;55.40;;;;;;5051557;28;20029;-69
2022/07/23 12:09:54;;;;;;;9.10;2.40;;;24.20;55.40;;;;;;5052525;28;20021;-69
2022/07/23 12:12:20;;;;;;;9.20;2.20;;;24.20;55.50;;;;;;5050893;28;20124;-69
2022/07/23 12:14:57;;;;;;;10.70;2.08;;;24.20;55.50;;;;;;5052107;28;20013;-69
2022/07/23 12:17:28;;;;;;;11.85;2.90;;;24.20;55.90;;;;;;5050930;28;20028;-69
2022/07/23 12:19:54;;;;;;;9.77;2.90;;;24.20;56.10;;;;;;5050927;28;20483;-69
2022/07/23 12:22:20;;;;;;;6.85;2.75;;;24.20;56.90;;;;;;5050907;28;20021;-69
2022/07/23 12:24:54;;;;;;;8.48;2.90;;;24.20;56.50;;;;;;5055082;28;20032;-69
2022/07/23 12:27:23;;;;;;;13.13;2.83;;;24.30;56.80;;;;;;5069115;28;20112;-69
2022/07/23 12:29:49;;;;;;;6.28;2.42;;;24.20;56.90;;;;;;5068845;28;20025;-70
2022/07/23 12:32:27;;;;;;;8.55;3.00;;;24.20;57.00;;;;;;5067957;28;20608;-69
2022/07/23 12:35:07;;;;;;;11.45;2.90;;;24.30;57.20;;;;;;5049420;28;20079;-69
2022/07/23 12:37:36;;;;;;;6.43;2.83;;;24.20;57.10;;;;;;5050615;28;20362;-69
2022/07/23 12:40:29;;;;;;;9.95;3.13;;;24.20;57.40;;;;;;5050635;28;20503;-69
2022/07/23 12:42:58;;;;;;;;;;;24.30;57.50;;;;;;5052288;28;20496;-69
2022/07/23 12:45:24;;;;;;;5.70;2.50;;;24.20;57.50;;;;;;5084823;28;19951;-69
2022/07/23 12:48:05;;;;;;;6.90;2.70;;;24.30;57.70;;;;;;5056355;28;20025;-69
2022/07/23 12:50:44;;;;;;;10.05;2.63;;;24.20;57.70;;;;;;5054879;28;20029;-69
2022/07/23 12:53:14;;;;;;;7.70;2.75;;;24.30;57.80;;;;;;5055565;28;20028;-69
2022/07/23 12:55:40;;;;;;;6.90;2.58;;;24.30;57.70;;;;;;5054011;28;20422;-69
2022/07/23 12:58:11;;;;;;;7.05;3.30;;;24.20;57.30;;;;;;5054578;28;20075;-69